Terminal Aerodrome Forecast
Issued by NWS

Home | Current Version | Previous Version | Text Only | Print | Product List | Glossary On
Versions: 1 2 3 4 5 6 7 8 9 10 11 12 13 14 15
000
FTUS44 KTSA 251722
TAFXNA
TAF
KXNA 251722Z 2518/2618 18004KT P6SM -RA OVC080
      TEMPO 2518/2522 4SM -RA BR OVC025
     FM252200 30005KT P6SM -SHRA OVC025
     FM260300 34010KT 4SM -DZ BR OVC007
     FM261500 34008KT P6SM OVC015=

USA.gov is the U.S. government's official web portal to all federal, state and local government web resources and services.